createdAt,value
2023-09-19T00:00:20.415Z,58.58
2023-09-19T00:03:03.236Z,58.59
2023-09-19T00:05:35.947Z,58.67
2023-09-19T00:08:06.131Z,58.61
2023-09-19T00:10:36.207Z,58.75
2023-09-19T00:13:06.526Z,58.91
2023-09-19T00:15:41.634Z,58.97
2023-09-19T00:18:09.881Z,58.88
2023-09-19T00:20:38.786Z,59.10
2023-09-19T00:23:06.996Z,58.90
2023-09-19T00:25:33.710Z,58.99
2023-09-19T00:28:00.456Z,59.10
2023-09-19T00:30:28.198Z,59.26
2023-09-19T00:32:56.085Z,59.30
2023-09-19T00:35:26.034Z,59.25
2023-09-19T00:37:53.359Z,59.48
2023-09-19T00:40:20.647Z,59.43
2023-09-19T00:42:48.169Z,59.60
2023-09-19T00:45:17.306Z,59.65
2023-09-19T00:47:50.964Z,59.57
2023-09-19T00:50:20.183Z,59.67
2023-09-19T00:52:51.369Z,59.83
2023-09-19T00:55:21.633Z,59.90
2023-09-19T00:57:51.239Z,59.81
2023-09-19T01:00:20.628Z,59.93
2023-09-19T01:02:48.694Z,60.05
2023-09-19T01:05:15.950Z,59.92
2023-09-19T01:07:43.374Z,59.86
2023-09-19T01:10:12.965Z,60.07
2023-09-19T01:13:00.969Z,60.07
2023-09-19T01:15:56.059Z,60.15
2023-09-19T01:18:51.101Z,60.24
2023-09-19T01:21:31.832Z,60.07
2023-09-19T01:24:30.690Z,60.18
2023-09-19T01:27:00.810Z,60.28
2023-09-19T01:29:35.858Z,60.49
2023-09-19T01:32:06.001Z,60.46
2023-09-19T01:34:49.975Z,60.32
2023-09-19T01:37:21.308Z,60.55
2023-09-19T01:39:52.375Z,60.64
2023-09-19T01:42:43.498Z,60.51
2023-09-19T01:45:39.849Z,60.73
2023-09-19T01:48:14.344Z,60.87
2023-09-19T01:50:50.343Z,60.81
2023-09-19T01:53:25.021Z,60.83
2023-09-19T01:55:53.937Z,60.61
2023-09-19T01:58:40.182Z,60.90
2023-09-19T02:01:14.367Z,60.96
2023-09-19T02:03:42.288Z,60.83
2023-09-19T02:06:12.628Z,61.05
2023-09-19T02:08:40.636Z,60.89
2023-09-19T02:11:07.191Z,61.06
2023-09-19T02:13:34.683Z,61.10
2023-09-19T02:16:53.466Z,61.17
2023-09-19T02:19:22.263Z,61.10
2023-09-19T02:21:50.113Z,61.30
2023-09-19T02:24:16.840Z,61.28
2023-09-19T02:26:43.461Z,61.22
2023-09-19T02:29:13.975Z,61.48
2023-09-19T02:31:41.028Z,61.44
2023-09-19T02:34:08.129Z,61.46
2023-09-19T02:36:34.650Z,61.38
2023-09-19T02:39:01.186Z,61.53
2023-09-19T02:41:30.540Z,61.73
2023-09-19T02:43:57.961Z,61.53
2023-09-19T02:46:24.610Z,61.66
2023-09-19T02:48:51.483Z,61.69
2023-09-19T02:51:18.031Z,61.88
2023-09-19T02:53:44.596Z,61.59
2023-09-19T02:56:13.096Z,61.69
2023-09-19T02:58:39.747Z,61.72
2023-09-19T03:01:12.536Z,61.71
2023-09-19T03:03:41.094Z,61.73
2023-09-19T03:06:10.265Z,61.85
2023-09-19T03:08:37.849Z,61.97
2023-09-19T03:11:04.972Z,62.00
2023-09-19T03:13:32.322Z,62.04
2023-09-19T03:15:59.569Z,62.05
2023-09-19T03:18:27.998Z,62.20
2023-09-19T03:20:56.479Z,62.11
2023-09-19T03:23:24.093Z,61.92
2023-09-19T03:25:51.602Z,62.11
2023-09-19T03:28:19.053Z,62.23
2023-09-19T03:30:46.018Z,62.13
2023-09-19T03:33:13.343Z,62.26
2023-09-19T03:35:41.030Z,62.29
2023-09-19T03:38:07.690Z,62.30
2023-09-19T03:40:34.544Z,62.22
2023-09-19T03:43:05.549Z,62.43
2023-09-19T03:45:32.161Z,62.42
2023-09-19T03:47:59.349Z,62.44
2023-09-19T03:50:26.085Z,62.42
2023-09-19T03:52:58.589Z,62.52
2023-09-19T03:55:25.661Z,62.48
2023-09-19T03:57:52.742Z,62.46
2023-09-19T04:00:22.801Z,62.31
2023-09-19T04:02:50.051Z,62.49
2023-09-19T04:05:16.786Z,62.62
2023-09-19T04:07:43.466Z,62.64
2023-09-19T04:10:12.515Z,62.69
2023-09-19T04:12:39.508Z,62.78
2023-09-19T04:15:07.126Z,62.99
2023-09-19T04:17:36.801Z,62.85
2023-09-19T04:20:08.797Z,62.90
2023-09-19T04:22:35.573Z,62.82
2023-09-19T04:25:02.492Z,62.76
2023-09-19T04:27:29.040Z,62.79
2023-09-19T04:30:00.353Z,63.02
2023-09-19T04:32:30.602Z,63.07
2023-09-19T04:35:01.187Z,63.09
2023-09-19T04:37:27.794Z,63.11
2023-09-19T04:39:55.643Z,63.07
2023-09-19T04:42:26.313Z,63.20
2023-09-19T04:44:54.376Z,63.01
2023-09-19T04:47:22.482Z,63.02
2023-09-19T04:49:50.469Z,62.94
2023-09-19T04:52:17.308Z,63.07
2023-09-19T04:54:43.837Z,63.29
2023-09-19T04:57:10.404Z,63.26
2023-09-19T04:59:37.747Z,63.18
2023-09-19T05:02:04.869Z,63.11
2023-09-19T05:04:31.539Z,63.31
2023-09-19T05:06:58.132Z,63.19
2023-09-19T05:09:24.741Z,63.24
2023-09-19T05:11:52.540Z,63.28
2023-09-19T05:14:19.076Z,63.29
2023-09-19T05:16:45.740Z,63.24
2023-09-19T05:19:13.218Z,63.38
2023-09-19T05:21:42.654Z,63.32
2023-09-19T05:24:11.415Z,63.30
2023-09-19T05:26:38.224Z,63.45
2023-09-19T05:29:06.384Z,63.37
2023-09-19T05:31:33.148Z,63.33
2023-09-19T05:34:02.226Z,63.43
2023-09-19T05:36:31.089Z,63.43
2023-09-19T05:38:57.592Z,63.32
2023-09-19T05:41:24.792Z,63.49
2023-09-19T05:43:51.775Z,63.37
2023-09-19T05:46:18.873Z,63.33
2023-09-19T05:48:45.688Z,63.33
2023-09-19T05:51:12.328Z,63.29
2023-09-19T05:53:39.128Z,63.18
2023-09-19T05:56:06.396Z,63.19
2023-09-19T05:58:33.083Z,63.17
2023-09-19T06:01:00.422Z,63.10
2023-09-19T06:03:27.489Z,63.28
2023-09-19T06:05:58.324Z,63.01
2023-09-19T06:08:24.905Z,63.00
2023-09-19T06:10:53.448Z,63.08
2023-09-19T06:13:21.028Z,63.10
2023-09-19T06:15:48.295Z,63.04
2023-09-19T06:18:20.375Z,62.96
2023-09-19T06:20:48.760Z,63.49
2023-09-19T06:23:15.784Z,63.68
2023-09-19T06:25:43.830Z,63.06
2023-09-19T06:28:13.203Z,62.47
2023-09-19T06:30:41.429Z,62.38
2023-09-19T06:33:08.264Z,62.31
2023-09-19T06:35:35.597Z,62.14
2023-09-19T06:38:05.661Z,62.02
2023-09-19T06:40:32.612Z,62.03
2023-09-19T06:42:59.420Z,61.95
2023-09-19T06:45:28.331Z,61.93
2023-09-19T06:47:59.955Z,61.83
2023-09-19T06:50:29.318Z,61.70
2023-09-19T06:52:58.991Z,61.73
2023-09-19T06:55:29.836Z,61.70
2023-09-19T06:57:57.137Z,61.75
2023-09-19T07:00:24.522Z,61.64
2023-09-19T07:03:05.721Z,61.73
2023-09-19T07:05:34.032Z,61.98
2023-09-19T07:08:02.243Z,61.84
2023-09-19T07:10:29.788Z,61.87
2023-09-19T07:12:59.428Z,61.89
2023-09-19T07:15:32.054Z,62.00
2023-09-19T07:17:58.838Z,61.79
2023-09-19T07:20:32.807Z,61.71
2023-09-19T07:23:02.934Z,61.71
2023-09-19T07:25:31.403Z,61.70
2023-09-19T07:28:01.545Z,61.94
2023-09-19T07:30:30.322Z,61.93
2023-09-19T07:32:57.389Z,61.87
2023-09-19T07:35:24.116Z,61.78
2023-09-19T07:37:51.011Z,61.66
2023-09-19T07:40:20.566Z,62.13
2023-09-19T07:42:48.421Z,62.33
2023-09-19T07:45:15.551Z,62.62
2023-09-19T07:47:50.331Z,62.64
2023-09-19T07:50:22.277Z,61.87
2023-09-19T07:52:54.399Z,60.97
2023-09-19T07:55:24.975Z,60.57
2023-09-19T07:57:52.929Z,60.29
2023-09-19T08:00:20.066Z,58.95
2023-09-19T08:02:48.499Z,58.39
2023-09-19T08:05:18.936Z,58.05
2023-09-19T08:07:49.917Z,58.35
2023-09-19T08:10:19.005Z,58.32
2023-09-19T08:12:47.868Z,57.27
2023-09-19T08:15:16.176Z,56.36
2023-09-19T08:17:44.213Z,56.26
2023-09-19T08:20:17.470Z,56.22
2023-09-19T08:22:49.136Z,55.66
2023-09-19T08:25:19.294Z,55.76
2023-09-19T08:27:50.867Z,56.08
2023-09-19T08:30:49.748Z,55.88
2023-09-19T08:33:16.554Z,55.52
2023-09-19T08:35:43.940Z,54.93
2023-09-19T08:38:13.098Z,54.84
2023-09-19T08:40:43.683Z,54.80
2023-09-19T08:43:10.642Z,54.91
2023-09-19T08:45:38.483Z,55.06
2023-09-19T08:48:20.632Z,54.91
2023-09-19T08:51:05.086Z,54.81
2023-09-19T08:53:33.358Z,54.84
2023-09-19T08:56:03.343Z,54.87
2023-09-19T08:58:36.528Z,55.31
2023-09-19T09:01:08.078Z,55.38
2023-09-19T09:03:37.077Z,55.07
2023-09-19T09:06:04.174Z,55.18
2023-09-19T09:08:32.436Z,55.21
2023-09-19T09:11:00.447Z,54.97
2023-09-19T09:13:27.785Z,55.15
2023-09-19T09:15:55.568Z,55.00
2023-09-19T09:18:23.998Z,55.11
2023-09-19T09:20:50.797Z,55.28
2023-09-19T09:23:17.459Z,55.33
2023-09-19T09:25:58.066Z,55.21
2023-09-19T09:28:26.876Z,55.04
2023-09-19T09:30:54.076Z,55.15
2023-09-19T09:33:22.326Z,55.27
2023-09-19T09:35:58.138Z,55.23
2023-09-19T09:38:28.780Z,55.31
2023-09-19T09:41:07.309Z,55.43
2023-09-19T09:43:40.251Z,55.29
2023-09-19T09:46:20.135Z,55.33
2023-09-19T09:48:55.417Z,55.42
2023-09-19T09:51:32.058Z,55.34
2023-09-19T09:54:18.737Z,55.45
2023-09-19T09:57:17.170Z,55.51
2023-09-19T09:59:47.695Z,55.90
2023-09-19T10:02:31.064Z,55.97
2023-09-19T10:05:16.743Z,56.07
2023-09-19T10:07:50.767Z,56.20
2023-09-19T10:10:41.122Z,55.80
2023-09-19T10:13:19.264Z,55.95
2023-09-19T10:15:55.317Z,55.99
2023-09-19T10:18:24.511Z,55.88
2023-09-19T10:20:52.246Z,55.67
2023-09-19T10:23:24.925Z,55.65
2023-09-19T10:25:53.801Z,55.48
2023-09-19T10:28:23.474Z,55.59
2023-09-19T10:30:52.646Z,55.58
2023-09-19T10:33:22.116Z,55.76
2023-09-19T10:35:50.031Z,55.92
2023-09-19T10:38:23.550Z,55.68
2023-09-19T10:40:54.378Z,55.48
2023-09-19T10:43:24.927Z,55.71
2023-09-19T10:45:53.727Z,55.92
2023-09-19T10:48:26.561Z,56.00
2023-09-19T10:51:00.719Z,56.10
2023-09-19T10:53:30.763Z,56.13
2023-09-19T10:56:00.942Z,56.24
2023-09-19T10:58:39.473Z,56.01
2023-09-19T11:01:11.379Z,55.95
2023-09-19T11:03:44.297Z,55.93
2023-09-19T11:06:20.622Z,56.04
2023-09-19T11:08:59.242Z,56.14
2023-09-19T11:11:42.728Z,56.12
2023-09-19T11:14:22.101Z,56.20
2023-09-19T11:17:12.863Z,56.48
2023-09-19T11:20:16.950Z,56.67
2023-09-19T11:22:50.204Z,56.76
2023-09-19T11:25:48.222Z,56.49
2023-09-19T11:28:18.986Z,56.37
2023-09-19T11:30:47.265Z,56.51
2023-09-19T11:33:34.560Z,56.69
2023-09-19T11:36:07.625Z,56.64
2023-09-19T11:38:45.294Z,56.71
2023-09-19T11:41:21.124Z,56.76
2023-09-19T11:43:57.948Z,56.48
2023-09-19T11:46:25.649Z,56.73
2023-09-19T11:48:53.490Z,57.00
2023-09-19T11:51:27.907Z,57.16
2023-09-19T11:53:57.178Z,57.23
2023-09-19T11:56:32.629Z,57.35
2023-09-19T11:59:01.485Z,57.52
2023-09-19T12:01:34.621Z,57.55
2023-09-19T12:04:03.282Z,57.63
2023-09-19T12:06:32.939Z,57.73
2023-09-19T12:09:01.049Z,57.90
2023-09-19T12:11:35.001Z,57.89
2023-09-19T12:14:03.385Z,57.79
2023-09-19T12:16:34.688Z,57.72
2023-09-19T12:19:23.820Z,57.79
2023-09-19T12:22:06.218Z,57.85
2023-09-19T12:24:34.238Z,57.88
2023-09-19T12:27:02.681Z,57.71
2023-09-19T12:29:31.015Z,57.66
2023-09-19T12:32:04.510Z,58.11
2023-09-19T12:34:35.926Z,58.32
2023-09-19T12:37:16.641Z,57.99
2023-09-19T12:39:50.132Z,57.85
2023-09-19T12:42:19.332Z,57.95
2023-09-19T12:44:48.879Z,57.96
2023-09-19T12:47:21.480Z,58.12
2023-09-19T12:50:19.908Z,58.29
2023-09-19T12:52:51.056Z,58.48
2023-09-19T12:55:34.851Z,58.61
2023-09-19T12:58:08.333Z,58.56
2023-09-19T13:00:40.410Z,58.48
2023-09-19T13:03:29.734Z,58.40
2023-09-19T13:05:59.110Z,58.39
2023-09-19T13:08:33.898Z,58.59
2023-09-19T13:11:14.332Z,58.61
2023-09-19T13:14:02.281Z,58.69
2023-09-19T13:16:28.994Z,58.68
2023-09-19T13:18:58.728Z,59.13
2023-09-19T13:21:29.716Z,59.15
2023-09-19T13:24:16.994Z,59.07
2023-09-19T13:26:43.515Z,59.28
2023-09-19T13:29:10.090Z,59.35
2023-09-19T13:31:39.259Z,59.59
2023-09-19T13:34:05.878Z,59.77
2023-09-19T13:36:32.544Z,59.56
2023-09-19T13:38:59.421Z,59.45
2023-09-19T13:41:26.230Z,59.42
2023-09-19T13:43:53.069Z,59.54
2023-09-19T13:46:26.643Z,59.68
2023-09-19T13:48:56.017Z,59.67
2023-09-19T13:51:26.604Z,59.67
2023-09-19T13:53:53.364Z,59.55
2023-09-19T13:56:20.165Z,59.32
2023-09-19T13:58:46.960Z,59.53
2023-09-19T14:01:14.348Z,59.62
2023-09-19T14:03:42.292Z,59.67
2023-09-19T14:06:09.007Z,59.59
2023-09-19T14:08:36.466Z,59.45
2023-09-19T14:11:12.034Z,59.44
2023-09-19T14:13:38.674Z,59.58
2023-09-19T14:16:06.335Z,59.71
2023-09-19T14:18:33.600Z,59.76
2023-09-19T14:21:07.864Z,59.69
2023-09-19T14:23:38.856Z,59.46
2023-09-19T14:26:09.049Z,59.47
2023-09-19T14:28:35.762Z,59.60
2023-09-19T14:31:10.527Z,59.80
2023-09-19T14:33:37.527Z,59.63
2023-09-19T14:36:09.597Z,59.73
2023-09-19T14:38:37.735Z,59.62
2023-09-19T14:41:06.952Z,59.69
2023-09-19T14:43:34.235Z,59.97
2023-09-19T14:46:11.195Z,60.03
2023-09-19T14:48:38.550Z,59.99
2023-09-19T14:51:13.220Z,60.24
2023-09-19T14:53:40.322Z,60.22
2023-09-19T14:56:10.649Z,60.32
2023-09-19T14:58:40.774Z,60.26
2023-09-19T15:01:12.447Z,60.42
2023-09-19T15:03:42.190Z,60.33
2023-09-19T15:06:18.323Z,60.44
2023-09-19T15:08:48.964Z,60.41
2023-09-19T15:11:18.727Z,60.51
2023-09-19T15:13:46.938Z,60.56
2023-09-19T15:16:14.945Z,60.63
2023-09-19T15:18:43.544Z,60.66
2023-09-19T15:21:11.841Z,60.67
2023-09-19T15:23:40.117Z,60.70
2023-09-19T15:26:09.773Z,60.78
2023-09-19T15:28:36.691Z,60.84
2023-09-19T15:31:08.235Z,60.95
2023-09-19T15:33:37.739Z,61.02
2023-09-19T15:36:08.082Z,61.06
2023-09-19T15:39:12.749Z,61.03
2023-09-19T15:41:46.991Z,61.08
2023-09-19T15:44:20.815Z,61.05
2023-09-19T15:46:50.804Z,61.26
2023-09-19T15:49:19.470Z,61.33
2023-09-19T15:51:48.266Z,61.21
2023-09-19T15:54:19.069Z,61.29
2023-09-19T15:56:52.602Z,61.46
2023-09-19T15:59:21.785Z,61.51
2023-09-19T16:01:51.801Z,61.45
2023-09-19T16:04:20.477Z,61.57
2023-09-19T16:06:48.807Z,61.61
2023-09-19T16:09:18.823Z,61.60
2023-09-19T16:11:50.599Z,61.63
2023-09-19T16:14:20.291Z,61.78
2023-09-19T16:16:51.137Z,61.76
2023-09-19T16:19:23.159Z,61.82
2023-09-19T16:21:52.728Z,61.80
2023-09-19T16:24:22.334Z,62.00
2023-09-19T16:26:51.712Z,62.09
2023-09-19T16:29:25.609Z,62.08
2023-09-19T16:39:58.100Z,62.35
2023-09-19T16:42:25.879Z,62.42
2023-09-19T16:44:54.259Z,62.41
2023-09-19T16:47:20.807Z,62.37
2023-09-19T16:49:47.562Z,63.07
2023-09-19T16:52:14.166Z,62.65
2023-09-19T16:54:40.764Z,62.56
2023-09-19T16:57:07.296Z,62.47
2023-09-19T16:59:33.856Z,62.51
2023-09-19T17:02:00.566Z,62.52
2023-09-19T17:04:27.272Z,62.52
2023-09-19T17:06:54.300Z,62.55
2023-09-19T17:09:20.853Z,62.89
2023-09-19T17:11:47.408Z,62.81
2023-09-19T17:14:14.229Z,62.90
2023-09-19T17:16:43.049Z,62.94
2023-09-19T17:19:10.044Z,63.08
2023-09-19T17:21:36.713Z,63.09
2023-09-19T17:24:04.470Z,63.00
2023-09-19T17:26:31.584Z,63.28
2023-09-19T17:28:58.387Z,63.16
2023-09-19T17:31:27.592Z,63.25
2023-09-19T17:33:54.900Z,63.21
2023-09-19T17:36:25.753Z,63.24
2023-09-19T17:38:59.978Z,63.35
2023-09-19T17:41:27.793Z,63.64
2023-09-19T17:44:00.983Z,63.41
2023-09-19T17:46:31.086Z,63.28
2023-09-19T17:49:01.050Z,63.54
2023-09-19T17:51:28.941Z,63.65
2023-09-19T17:54:00.243Z,63.64
2023-09-19T17:56:27.313Z,63.65
2023-09-19T17:58:58.510Z,63.81
2023-09-19T18:01:29.416Z,63.81
2023-09-19T18:04:01.299Z,63.91
2023-09-19T18:06:29.581Z,63.96
2023-09-19T18:08:57.117Z,63.96
2023-09-19T18:11:27.027Z,63.98
2023-09-19T18:13:57.033Z,64.02
2023-09-19T18:16:26.143Z,64.38
2023-09-19T18:18:54.623Z,64.38
2023-09-19T18:21:22.183Z,64.14
2023-09-19T18:24:00.039Z,64.22
2023-09-19T18:26:27.394Z,64.24
2023-09-19T18:28:54.738Z,64.45
2023-09-19T18:31:22.077Z,64.52
2023-09-19T18:33:49.304Z,64.45
2023-09-19T18:36:16.409Z,64.52
2023-09-19T18:38:48.728Z,64.33
2023-09-19T18:41:16.045Z,64.37
2023-09-19T18:43:43.288Z,64.51
2023-09-19T18:46:10.430Z,64.41
2023-09-19T18:48:37.910Z,64.63
2023-09-19T18:51:11.626Z,64.52
2023-09-19T18:53:56.985Z,64.58
2023-09-19T18:56:32.825Z,64.57
2023-09-19T18:58:59.548Z,64.77
2023-09-19T19:01:26.354Z,64.80
2023-09-19T19:03:54.097Z,64.65
2023-09-19T19:06:22.825Z,64.74
2023-09-19T19:08:49.587Z,64.83
2023-09-19T19:11:18.278Z,64.87
2023-09-19T19:13:47.808Z,64.77
2023-09-19T19:16:17.195Z,64.67
2023-09-19T19:18:47.457Z,64.71
2023-09-19T19:21:16.079Z,64.96
2023-09-19T19:23:42.984Z,65.12
2023-09-19T19:26:10.768Z,65.18
2023-09-19T19:28:40.779Z,65.22
2023-09-19T19:31:11.164Z,64.92
2023-09-19T19:33:39.500Z,64.91
2023-09-19T19:36:11.525Z,64.86
2023-09-19T19:38:39.639Z,64.86
2023-09-19T19:41:09.120Z,64.95
2023-09-19T19:43:36.244Z,65.06
2023-09-19T19:46:06.012Z,64.92
2023-09-19T19:48:35.799Z,65.08
2023-09-19T19:51:11.746Z,65.03
2023-09-19T19:53:39.785Z,65.17
2023-09-19T19:56:07.786Z,65.11
2023-09-19T19:58:38.492Z,65.04
2023-09-19T20:01:10.038Z,65.08
2023-09-19T20:03:38.010Z,65.15
2023-09-19T20:06:06.982Z,65.12
2023-09-19T20:08:33.981Z,65.10
2023-09-19T20:11:08.648Z,65.10
2023-09-19T20:13:36.020Z,65.21
2023-09-19T20:16:05.299Z,65.28
2023-09-19T20:18:33.552Z,65.31
2023-09-19T20:21:11.426Z,65.23
2023-09-19T20:23:39.180Z,65.24
2023-09-19T20:26:07.716Z,65.17
2023-09-19T20:28:35.274Z,65.21
2023-09-19T20:31:10.212Z,65.28
2023-09-19T20:33:41.863Z,65.35
2023-09-19T20:36:10.647Z,65.39
2023-09-19T20:38:37.887Z,65.31
2023-09-19T20:41:11.317Z,65.37
2023-09-19T20:43:41.898Z,65.34
2023-09-19T20:46:09.092Z,65.42
2023-09-19T20:48:36.105Z,65.38
2023-09-19T20:51:10.663Z,65.42
2023-09-19T20:53:42.035Z,65.40
2023-09-19T20:56:09.149Z,65.37
2023-09-19T20:58:37.155Z,65.37
2023-09-19T21:01:05.797Z,65.41
2023-09-19T21:03:33.475Z,65.33
2023-09-19T21:06:01.806Z,65.37
2023-09-19T21:08:28.474Z,65.55
2023-09-19T21:10:55.160Z,65.48
2023-09-19T21:13:21.847Z,65.61
2023-09-19T21:15:48.415Z,65.62
2023-09-19T21:18:15.072Z,65.59
2023-09-19T21:20:41.889Z,65.63
2023-09-19T21:23:14.695Z,65.63
2023-09-19T21:25:42.318Z,65.68
2023-09-19T21:28:09.679Z,65.63
2023-09-19T21:30:37.166Z,65.77
2023-09-19T21:33:04.259Z,65.82
2023-09-19T21:35:30.937Z,65.86
2023-09-19T21:37:57.564Z,65.86
2023-09-19T21:40:25.029Z,65.82
2023-09-19T21:42:51.586Z,66.08
2023-09-19T21:45:18.173Z,65.94
2023-09-19T21:47:44.821Z,65.92
2023-09-19T21:50:11.765Z,65.94
2023-09-19T21:52:38.581Z,65.88
2023-09-19T21:55:06.045Z,65.97
2023-09-19T21:57:32.826Z,66.02
2023-09-19T21:59:59.516Z,66.05
2023-09-19T22:02:27.075Z,66.05
2023-09-19T22:04:53.775Z,66.06
2023-09-19T22:07:23.868Z,66.06
2023-09-19T22:09:50.715Z,66.15
2023-09-19T22:12:18.286Z,66.17
2023-09-19T22:14:44.869Z,66.18
2023-09-19T22:17:14.391Z,66.15
2023-09-19T22:19:45.026Z,66.21
2023-09-19T22:22:13.073Z,66.35
2023-09-19T22:24:40.530Z,66.46
2023-09-19T22:27:07.482Z,66.56
2023-09-19T22:29:34.801Z,66.54
2023-09-19T22:32:01.989Z,66.64
2023-09-19T22:34:28.652Z,66.51
2023-09-19T22:36:55.894Z,66.50
2023-09-19T22:39:26.811Z,66.51
2023-09-19T22:41:54.958Z,66.52
2023-09-19T22:44:22.698Z,66.65
2023-09-19T22:46:50.288Z,66.57
2023-09-19T22:49:18.411Z,66.81
2023-09-19T22:52:00.176Z,66.77
2023-09-19T22:54:28.085Z,66.79
2023-09-19T22:56:55.142Z,66.75
2023-09-19T22:59:22.934Z,66.70
2023-09-19T23:01:53.508Z,66.72
2023-09-19T23:04:22.312Z,66.68
2023-09-19T23:07:01.572Z,66.65
2023-09-19T23:09:29.049Z,66.77
2023-09-19T23:12:11.436Z,66.88
2023-09-19T23:14:42.831Z,66.99
2023-09-19T23:17:18.228Z,67.14
2023-09-19T23:19:49.784Z,67.13
2023-09-19T23:22:19.742Z,67.09
2023-09-19T23:24:50.934Z,66.98
2023-09-19T23:27:20.108Z,67.08
2023-09-19T23:29:47.608Z,67.02
2023-09-19T23:32:16.315Z,67.14
2023-09-19T23:34:44.266Z,67.15
2023-09-19T23:37:11.063Z,67.15
2023-09-19T23:39:41.690Z,67.06
2023-09-19T23:42:13.684Z,67.07
2023-09-19T23:44:44.051Z,67.03
2023-09-19T23:47:12.085Z,66.96
2023-09-19T23:49:40.509Z,67.14
2023-09-19T23:52:07.274Z,67.29
2023-09-19T23:54:36.202Z,67.25
2023-09-19T23:57:07.539Z,67.24
2023-09-19T23:59:34.526Z,67.24
